sensor_id;sensor_type;location;lat;lon;timestamp;P1;durP1;ratioP1;P2;durP2;ratioP2
26654;SDS011;14278;50.784;4.630;2023-07-28T00:02:06;0.70;;;0.70;;
26654;SDS011;14278;50.784;4.630;2023-07-28T00:04:33;1.20;;;1.10;;
26654;SDS011;14278;50.784;4.630;2023-07-28T00:07:00;0.63;;;0.63;;
26654;SDS011;14278;50.784;4.630;2023-07-28T00:09:26;0.80;;;0.80;;
26654;SDS011;14278;50.784;4.630;2023-07-28T00:11:52;1.00;;;0.90;;
26654;SDS011;14278;50.784;4.630;2023-07-28T00:14:18;0.83;;;0.83;;
26654;SDS011;14278;50.784;4.630;2023-07-28T00:16:44;0.87;;;0.80;;
26654;SDS011;14278;50.784;4.630;2023-07-28T00:19:10;1.97;;;0.90;;
26654;SDS011;14278;50.784;4.630;2023-07-28T00:21:36;0.67;;;0.67;;
26654;SDS011;14278;50.784;4.630;2023-07-28T00:24:03;0.73;;;0.73;;
26654;SDS011;14278;50.784;4.630;2023-07-28T00:26:29;0.63;;;0.63;;
26654;SDS011;14278;50.784;4.630;2023-07-28T00:28:55;0.97;;;0.83;;
26654;SDS011;14278;50.784;4.630;2023-07-28T00:31:20;0.80;;;0.80;;
26654;SDS011;14278;50.784;4.630;2023-07-28T00:33:46;0.80;;;0.80;;
26654;SDS011;14278;50.784;4.630;2023-07-28T00:36:12;0.80;;;0.80;;
26654;SDS011;14278;50.784;4.630;2023-07-28T00:38:38;0.50;;;0.50;;
26654;SDS011;14278;50.784;4.630;2023-07-28T00:41:03;0.50;;;0.50;;
26654;SDS011;14278;50.784;4.630;2023-07-28T00:43:29;0.80;;;0.80;;
26654;SDS011;14278;50.784;4.630;2023-07-28T00:45:55;1.83;;;0.87;;
26654;SDS011;14278;50.784;4.630;2023-07-28T00:48:21;3.10;;;1.00;;
26654;SDS011;14278;50.784;4.630;2023-07-28T00:50:48;0.70;;;0.70;;
26654;SDS011;14278;50.784;4.630;2023-07-28T00:53:16;0.70;;;0.70;;
26654;SDS011;14278;50.784;4.630;2023-07-28T00:55:42;1.73;;;0.77;;
26654;SDS011;14278;50.784;4.630;2023-07-28T00:58:10;4.23;;;0.90;;
26654;SDS011;14278;50.784;4.630;2023-07-28T01:00:36;0.87;;;0.80;;
26654;SDS011;14278;50.784;4.630;2023-07-28T01:03:03;0.60;;;0.60;;
26654;SDS011;14278;50.784;4.630;2023-07-28T01:05:32;1.17;;;0.87;;
26654;SDS011;14278;50.784;4.630;2023-07-28T01:08:08;0.70;;;0.70;;
26654;SDS011;14278;50.784;4.630;2023-07-28T01:11:08;1.23;;;1.13;;
26654;SDS011;14278;50.784;4.630;2023-07-28T01:13:35;0.90;;;0.90;;
26654;SDS011;14278;50.784;4.630;2023-07-28T01:16:00;1.30;;;1.23;;
26654;SDS011;14278;50.784;4.630;2023-07-28T01:18:27;1.33;;;0.90;;
26654;SDS011;14278;50.784;4.630;2023-07-28T01:20:54;2.50;;;1.17;;
26654;SDS011;14278;50.784;4.630;2023-07-28T01:26:17;3.27;;;1.77;;
26654;SDS011;14278;50.784;4.630;2023-07-28T01:29:10;2.00;;;1.60;;
26654;SDS011;14278;50.784;4.630;2023-07-28T01:31:38;1.90;;;1.60;;
26654;SDS011;14278;50.784;4.630;2023-07-28T01:34:04;3.57;;;1.60;;
26654;SDS011;14278;50.784;4.630;2023-07-28T01:36:30;2.20;;;1.77;;
26654;SDS011;14278;50.784;4.630;2023-07-28T01:38:56;2.17;;;1.83;;
26654;SDS011;14278;50.784;4.630;2023-07-28T01:41:22;2.40;;;2.20;;
26654;SDS011;14278;50.784;4.630;2023-07-28T01:43:48;2.50;;;2.23;;
26654;SDS011;14278;50.784;4.630;2023-07-28T01:46:13;2.40;;;2.00;;
26654;SDS011;14278;50.784;4.630;2023-07-28T01:48:39;2.13;;;1.93;;
26654;SDS011;14278;50.784;4.630;2023-07-28T01:51:06;2.03;;;1.60;;
26654;SDS011;14278;50.784;4.630;2023-07-28T01:53:31;2.13;;;1.93;;
26654;SDS011;14278;50.784;4.630;2023-07-28T01:56:00;1.93;;;1.77;;
26654;SDS011;14278;50.784;4.630;2023-07-28T01:58:26;1.77;;;1.67;;
26654;SDS011;14278;50.784;4.630;2023-07-28T02:00:52;2.73;;;2.23;;
26654;SDS011;14278;50.784;4.630;2023-07-28T02:03:18;2.37;;;1.80;;
26654;SDS011;14278;50.784;4.630;2023-07-28T02:05:44;2.23;;;2.03;;
26654;SDS011;14278;50.784;4.630;2023-07-28T02:08:09;2.00;;;1.73;;
26654;SDS011;14278;50.784;4.630;2023-07-28T02:10:35;2.77;;;2.37;;
26654;SDS011;14278;50.784;4.630;2023-07-28T02:13:01;4.37;;;2.57;;
26654;SDS011;14278;50.784;4.630;2023-07-28T02:15:27;2.37;;;2.10;;
26654;SDS011;14278;50.784;4.630;2023-07-28T02:17:53;2.00;;;1.80;;
26654;SDS011;14278;50.784;4.630;2023-07-28T02:20:19;2.40;;;2.00;;
26654;SDS011;14278;50.784;4.630;2023-07-28T02:22:44;3.40;;;2.33;;
26654;SDS011;14278;50.784;4.630;2023-07-28T02:25:10;2.37;;;2.17;;
26654;SDS011;14278;50.784;4.630;2023-07-28T02:27:36;4.50;;;1.80;;
26654;SDS011;14278;50.784;4.630;2023-07-28T02:30:03;2.83;;;2.43;;
26654;SDS011;14278;50.784;4.630;2023-07-28T02:32:30;2.03;;;1.87;;
26654;SDS011;14278;50.784;4.630;2023-07-28T02:34:56;2.20;;;2.00;;
26654;SDS011;14278;50.784;4.630;2023-07-28T02:37:21;2.97;;;2.17;;
26654;SDS011;14278;50.784;4.630;2023-07-28T02:39:47;2.33;;;2.13;;
26654;SDS011;14278;50.784;4.630;2023-07-28T02:42:13;3.03;;;1.80;;
26654;SDS011;14278;50.784;4.630;2023-07-28T02:44:39;1.90;;;1.80;;
26654;SDS011;14278;50.784;4.630;2023-07-28T02:47:05;2.13;;;1.93;;
26654;SDS011;14278;50.784;4.630;2023-07-28T02:49:31;2.60;;;2.20;;
26654;SDS011;14278;50.784;4.630;2023-07-28T02:51:57;2.30;;;2.10;;
26654;SDS011;14278;50.784;4.630;2023-07-28T02:54:23;2.17;;;1.83;;
26654;SDS011;14278;50.784;4.630;2023-07-28T02:56:50;2.43;;;1.97;;
26654;SDS011;14278;50.784;4.630;2023-07-28T02:59:16;5.87;;;3.00;;
26654;SDS011;14278;50.784;4.630;2023-07-28T03:01:42;1.93;;;1.80;;
26654;SDS011;14278;50.784;4.630;2023-07-28T03:04:08;2.10;;;1.97;;
26654;SDS011;14278;50.784;4.630;2023-07-28T03:06:34;5.47;;;2.20;;
26654;SDS011;14278;50.784;4.630;2023-07-28T03:09:00;1.93;;;1.83;;
26654;SDS011;14278;50.784;4.630;2023-07-28T03:11:26;2.80;;;2.50;;
26654;SDS011;14278;50.784;4.630;2023-07-28T03:13:51;4.00;;;1.87;;
26654;SDS011;14278;50.784;4.630;2023-07-28T03:16:18;3.03;;;2.73;;
26654;SDS011;14278;50.784;4.630;2023-07-28T03:18:43;6.17;;;2.67;;
26654;SDS011;14278;50.784;4.630;2023-07-28T03:21:09;3.10;;;2.80;;
26654;SDS011;14278;50.784;4.630;2023-07-28T03:23:35;2.67;;;2.40;;
26654;SDS011;14278;50.784;4.630;2023-07-28T03:26:01;2.33;;;2.13;;
26654;SDS011;14278;50.784;4.630;2023-07-28T03:28:27;3.17;;;2.20;;
26654;SDS011;14278;50.784;4.630;2023-07-28T03:30:53;2.67;;;2.00;;
26654;SDS011;14278;50.784;4.630;2023-07-28T03:33:19;2.50;;;2.30;;
26654;SDS011;14278;50.784;4.630;2023-07-28T03:35:45;2.07;;;1.97;;
26654;SDS011;14278;50.784;4.630;2023-07-28T03:38:11;2.97;;;1.90;;
26654;SDS011;14278;50.784;4.630;2023-07-28T03:40:37;3.67;;;1.93;;
26654;SDS011;14278;50.784;4.630;2023-07-28T03:43:03;1.90;;;1.77;;
26654;SDS011;14278;50.784;4.630;2023-07-28T03:45:29;1.87;;;1.77;;
26654;SDS011;14278;50.784;4.630;2023-07-28T03:47:55;1.80;;;1.70;;
26654;SDS011;14278;50.784;4.630;2023-07-28T03:50:20;1.63;;;1.53;;
26654;SDS011;14278;50.784;4.630;2023-07-28T03:52:47;2.20;;;2.00;;
26654;SDS011;14278;50.784;4.630;2023-07-28T03:55:12;2.20;;;1.80;;
26654;SDS011;14278;50.784;4.630;2023-07-28T03:57:38;1.50;;;1.40;;
26654;SDS011;14278;50.784;4.630;2023-07-28T04:00:04;1.50;;;1.40;;
26654;SDS011;14278;50.784;4.630;2023-07-28T04:02:31;2.07;;;1.90;;
26654;SDS011;14278;50.784;4.630;2023-07-28T04:04:58;1.70;;;1.50;;
26654;SDS011;14278;50.784;4.630;2023-07-28T04:07:23;1.67;;;1.30;;
26654;SDS011;14278;50.784;4.630;2023-07-28T04:09:49;1.60;;;1.50;;
26654;SDS011;14278;50.784;4.630;2023-07-28T04:12:15;1.60;;;1.50;;
26654;SDS011;14278;50.784;4.630;2023-07-28T04:14:41;1.40;;;1.30;;
26654;SDS011;14278;50.784;4.630;2023-07-28T04:17:07;1.40;;;1.30;;
26654;SDS011;14278;50.784;4.630;2023-07-28T04:19:33;2.10;;;1.77;;
26654;SDS011;14278;50.784;4.630;2023-07-28T04:22:00;1.33;;;1.23;;
26654;SDS011;14278;50.784;4.630;2023-07-28T04:24:26;1.57;;;1.47;;
26654;SDS011;14278;50.784;4.630;2023-07-28T04:26:52;2.07;;;1.43;;
26654;SDS011;14278;50.784;4.630;2023-07-28T04:29:18;3.50;;;1.37;;
26654;SDS011;14278;50.784;4.630;2023-07-28T04:31:44;1.63;;;1.40;;
26654;SDS011;14278;50.784;4.630;2023-07-28T04:34:10;1.23;;;1.17;;
26654;SDS011;14278;50.784;4.630;2023-07-28T04:36:36;1.63;;;1.53;;
26654;SDS011;14278;50.784;4.630;2023-07-28T04:39:01;1.20;;;1.10;;
26654;SDS011;14278;50.784;4.630;2023-07-28T04:41:28;1.00;;;0.97;;
26654;SDS011;14278;50.784;4.630;2023-07-28T04:43:54;1.30;;;1.13;;
26654;SDS011;14278;50.784;4.630;2023-07-28T04:46:19;2.93;;;1.40;;
26654;SDS011;14278;50.784;4.630;2023-07-28T04:48:46;1.30;;;1.20;;
26654;SDS011;14278;50.784;4.630;2023-07-28T04:51:11;2.10;;;1.43;;
26654;SDS011;14278;50.784;4.630;2023-07-28T04:53:38;0.73;;;0.73;;
26654;SDS011;14278;50.784;4.630;2023-07-28T04:56:03;1.00;;;0.97;;
26654;SDS011;14278;50.784;4.630;2023-07-28T04:58:29;1.30;;;1.20;;
26654;SDS011;14278;50.784;4.630;2023-07-28T05:00:55;1.93;;;1.20;;
26654;SDS011;14278;50.784;4.630;2023-07-28T05:03:21;3.53;;;1.43;;
26654;SDS011;14278;50.784;4.630;2023-07-28T05:05:47;1.17;;;1.07;;
26654;SDS011;14278;50.784;4.630;2023-07-28T05:08:13;1.10;;;1.00;;
26654;SDS011;14278;50.784;4.630;2023-07-28T05:10:40;1.83;;;1.27;;
26654;SDS011;14278;50.784;4.630;2023-07-28T05:13:08;1.27;;;1.13;;
26654;SDS011;14278;50.784;4.630;2023-07-28T05:15:34;1.00;;;0.93;;
26654;SDS011;14278;50.784;4.630;2023-07-28T05:18:00;1.57;;;0.90;;
26654;SDS011;14278;50.784;4.630;2023-07-28T05:20:26;1.23;;;1.10;;
26654;SDS011;14278;50.784;4.630;2023-07-28T05:22:51;1.00;;;0.77;;
26654;SDS011;14278;50.784;4.630;2023-07-28T05:25:17;0.87;;;0.87;;
26654;SDS011;14278;50.784;4.630;2023-07-28T05:27:43;1.93;;;0.93;;
26654;SDS011;14278;50.784;4.630;2023-07-28T05:30:09;6.47;;;1.03;;
26654;SDS011;14278;50.784;4.630;2023-07-28T05:32:35;1.00;;;1.00;;
26654;SDS011;14278;50.784;4.630;2023-07-28T05:35:01;1.30;;;1.13;;
26654;SDS011;14278;50.784;4.630;2023-07-28T05:37:27;1.20;;;0.77;;
26654;SDS011;14278;50.784;4.630;2023-07-28T05:39:52;0.50;;;0.50;;
26654;SDS011;14278;50.784;4.630;2023-07-28T05:42:19;0.53;;;0.53;;
26654;SDS011;14278;50.784;4.630;2023-07-28T05:44:45;0.70;;;0.70;;
26654;SDS011;14278;50.784;4.630;2023-07-28T05:47:10;0.80;;;0.80;;
26654;SDS011;14278;50.784;4.630;2023-07-28T05:49:36;2.90;;;0.90;;
26654;SDS011;14278;50.784;4.630;2023-07-28T05:52:02;4.73;;;0.80;;
26654;SDS011;14278;50.784;4.630;2023-07-28T05:54:28;0.55;;;0.50;;
26654;SDS011;14278;50.784;4.630;2023-07-28T05:56:54;2.88;;;0.68;;
26654;SDS011;14278;50.784;4.630;2023-07-28T05:59:20;0.47;;;0.47;;
26654;SDS011;14278;50.784;4.630;2023-07-28T06:01:46;0.80;;;0.80;;
26654;SDS011;14278;50.784;4.630;2023-07-28T06:04:12;2.25;;;0.50;;
26654;SDS011;14278;50.784;4.630;2023-07-28T06:06:38;0.28;;;0.28;;
26654;SDS011;14278;50.784;4.630;2023-07-28T06:09:04;0.70;;;0.50;;
26654;SDS011;14278;50.784;4.630;2023-07-28T06:11:30;0.55;;;0.55;;
26654;SDS011;14278;50.784;4.630;2023-07-28T06:13:55;0.70;;;0.70;;
26654;SDS011;14278;50.784;4.630;2023-07-28T06:16:22;0.30;;;0.30;;
26654;SDS011;14278;50.784;4.630;2023-07-28T06:18:49;0.45;;;0.45;;
26654;SDS011;14278;50.784;4.630;2023-07-28T06:21:15;0.77;;;0.75;;
26654;SDS011;14278;50.784;4.630;2023-07-28T06:23:41;0.77;;;0.60;;
26654;SDS011;14278;50.784;4.630;2023-07-28T06:26:07;0.60;;;0.60;;
26654;SDS011;14278;50.784;4.630;2023-07-28T06:28:32;0.70;;;0.70;;
26654;SDS011;14278;50.784;4.630;2023-07-28T06:30:59;0.60;;;0.60;;
26654;SDS011;14278;50.784;4.630;2023-07-28T06:33:25;0.60;;;0.60;;
26654;SDS011;14278;50.784;4.630;2023-07-28T06:35:53;0.60;;;0.60;;
26654;SDS011;14278;50.784;4.630;2023-07-28T06:38:18;0.87;;;0.83;;
26654;SDS011;14278;50.784;4.630;2023-07-28T06:40:44;0.60;;;0.60;;
26654;SDS011;14278;50.784;4.630;2023-07-28T06:43:10;0.75;;;0.75;;
26654;SDS011;14278;50.784;4.630;2023-07-28T06:45:36;0.90;;;0.85;;
26654;SDS011;14278;50.784;4.630;2023-07-28T06:48:02;0.60;;;0.60;;
26654;SDS011;14278;50.784;4.630;2023-07-28T06:50:28;0.63;;;0.63;;
26654;SDS011;14278;50.784;4.630;2023-07-28T06:52:54;0.53;;;0.53;;
26654;SDS011;14278;50.784;4.630;2023-07-28T06:55:20;0.95;;;0.93;;
26654;SDS011;14278;50.784;4.630;2023-07-28T06:57:47;0.50;;;0.50;;
26654;SDS011;14278;50.784;4.630;2023-07-28T07:00:14;1.17;;;1.08;;
26654;SDS011;14278;50.784;4.630;2023-07-28T07:02:40;2.72;;;0.65;;
26654;SDS011;14278;50.784;4.630;2023-07-28T07:05:06;0.85;;;0.80;;
26654;SDS011;14278;50.784;4.630;2023-07-28T07:07:33;0.75;;;0.65;;
26654;SDS011;14278;50.784;4.630;2023-07-28T07:09:59;0.95;;;0.85;;
26654;SDS011;14278;50.784;4.630;2023-07-28T07:12:25;0.45;;;0.45;;
26654;SDS011;14278;50.784;4.630;2023-07-28T07:14:50;1.10;;;0.90;;
26654;SDS011;14278;50.784;4.630;2023-07-28T07:17:17;1.58;;;0.77;;
26654;SDS011;14278;50.784;4.630;2023-07-28T07:19:43;4.25;;;1.15;;
26654;SDS011;14278;50.784;4.630;2023-07-28T07:22:09;0.80;;;0.80;;
26654;SDS011;14278;50.784;4.630;2023-07-28T07:24:35;0.95;;;0.80;;
26654;SDS011;14278;50.784;4.630;2023-07-28T07:27:00;1.00;;;0.68;;
26654;SDS011;14278;50.784;4.630;2023-07-28T07:29:26;0.50;;;0.50;;
26654;SDS011;14278;50.784;4.630;2023-07-28T07:31:53;0.70;;;0.70;;
26654;SDS011;14278;50.784;4.630;2023-07-28T07:34:21;0.75;;;0.50;;
26654;SDS011;14278;50.784;4.630;2023-07-28T07:36:48;0.60;;;0.60;;
26654;SDS011;14278;50.784;4.630;2023-07-28T07:39:14;0.50;;;0.50;;
26654;SDS011;14278;50.784;4.630;2023-07-28T07:41:40;0.50;;;0.50;;
26654;SDS011;14278;50.784;4.630;2023-07-28T07:44:06;0.70;;;0.70;;
26654;SDS011;14278;50.784;4.630;2023-07-28T07:46:32;0.63;;;0.63;;
26654;SDS011;14278;50.784;4.630;2023-07-28T07:48:58;0.50;;;0.50;;
26654;SDS011;14278;50.784;4.630;2023-07-28T07:51:24;0.85;;;0.80;;
26654;SDS011;14278;50.784;4.630;2023-07-28T07:53:50;0.80;;;0.75;;
26654;SDS011;14278;50.784;4.630;2023-07-28T07:56:16;0.50;;;0.50;;
26654;SDS011;14278;50.784;4.630;2023-07-28T07:58:43;0.40;;;0.40;;
26654;SDS011;14278;50.784;4.630;2023-07-28T08:01:08;0.43;;;0.43;;
26654;SDS011;14278;50.784;4.630;2023-07-28T08:03:34;0.80;;;0.80;;
26654;SDS011;14278;50.784;4.630;2023-07-28T08:06:03;0.80;;;0.65;;
26654;SDS011;14278;50.784;4.630;2023-07-28T08:08:29;0.63;;;0.63;;
26654;SDS011;14278;50.784;4.630;2023-07-28T08:10:55;0.68;;;0.68;;
26654;SDS011;14278;50.784;4.630;2023-07-28T08:13:21;0.90;;;0.63;;
26654;SDS011;14278;50.784;4.630;2023-07-28T08:15:47;0.30;;;0.30;;
26654;SDS011;14278;50.784;4.630;2023-07-28T08:18:14;0.60;;;0.60;;
26654;SDS011;14278;50.784;4.630;2023-07-28T08:20:40;0.57;;;0.57;;
26654;SDS011;14278;50.784;4.630;2023-07-28T08:23:06;0.40;;;0.40;;
26654;SDS011;14278;50.784;4.630;2023-07-28T08:25:32;0.38;;;0.38;;
26654;SDS011;14278;50.784;4.630;2023-07-28T08:27:59;0.40;;;0.40;;
26654;SDS011;14278;50.784;4.630;2023-07-28T08:30:25;0.60;;;0.60;;
26654;SDS011;14278;50.784;4.630;2023-07-28T08:32:52;0.57;;;0.40;;
26654;SDS011;14278;50.784;4.630;2023-07-28T08:35:18;0.52;;;0.52;;
26654;SDS011;14278;50.784;4.630;2023-07-28T08:37:43;0.45;;;0.43;;
26654;SDS011;14278;50.784;4.630;2023-07-28T08:40:09;0.73;;;0.30;;
26654;SDS011;14278;50.784;4.630;2023-07-28T08:42:39;0.17;;;0.17;;
26654;SDS011;14278;50.784;4.630;2023-07-28T08:45:06;0.30;;;0.30;;
26654;SDS011;14278;50.784;4.630;2023-07-28T08:47:36;0.40;;;0.40;;
26654;SDS011;14278;50.784;4.630;2023-07-28T08:50:02;0.50;;;0.50;;
26654;SDS011;14278;50.784;4.630;2023-07-28T08:52:28;0.32;;;0.32;;
26654;SDS011;14278;50.784;4.630;2023-07-28T08:54:54;0.38;;;0.38;;
26654;SDS011;14278;50.784;4.630;2023-07-28T08:57:20;0.25;;;0.25;;
26654;SDS011;14278;50.784;4.630;2023-07-28T08:59:46;0.75;;;0.38;;
26654;SDS011;14278;50.784;4.630;2023-07-28T09:02:16;0.47;;;0.47;;
26654;SDS011;14278;50.784;4.630;2023-07-28T09:04:43;0.50;;;0.50;;
26654;SDS011;14278;50.784;4.630;2023-07-28T09:07:10;0.47;;;0.47;;
26654;SDS011;14278;50.784;4.630;2023-07-28T09:09:36;1.13;;;0.55;;
26654;SDS011;14278;50.784;4.630;2023-07-28T09:12:02;0.70;;;0.52;;
26654;SDS011;14278;50.784;4.630;2023-07-28T09:14:34;0.40;;;0.40;;
26654;SDS011;14278;50.784;4.630;2023-07-28T09:17:11;0.40;;;0.40;;
26654;SDS011;14278;50.784;4.630;2023-07-28T09:19:53;0.82;;;0.40;;
26654;SDS011;14278;50.784;4.630;2023-07-28T09:22:20;0.50;;;0.50;;
26654;SDS011;14278;50.784;4.630;2023-07-28T09:24:47;1.25;;;1.00;;
26654;SDS011;14278;50.784;4.630;2023-07-28T09:27:22;7.03;;;1.67;;
26654;SDS011;14278;50.784;4.630;2023-07-28T09:29:52;0.98;;;0.63;;
26654;SDS011;14278;50.784;4.630;2023-07-28T09:32:26;1.00;;;0.98;;
26654;SDS011;14278;50.784;4.630;2023-07-28T09:35:06;0.50;;;0.50;;
26654;SDS011;14278;50.784;4.630;2023-07-28T09:37:39;0.30;;;0.30;;
26654;SDS011;14278;50.784;4.630;2023-07-28T09:40:09;0.73;;;0.45;;
26654;SDS011;14278;50.784;4.630;2023-07-28T09:42:37;0.55;;;0.55;;
26654;SDS011;14278;50.784;4.630;2023-07-28T09:45:07;0.30;;;0.30;;
26654;SDS011;14278;50.784;4.630;2023-07-28T09:47:35;0.52;;;0.52;;
26654;SDS011;14278;50.784;4.630;2023-07-28T09:50:02;0.30;;;0.30;;
26654;SDS011;14278;50.784;4.630;2023-07-28T09:52:49;0.75;;;0.73;;
26654;SDS011;14278;50.784;4.630;2023-07-28T09:55:18;0.73;;;0.73;;
26654;SDS011;14278;50.784;4.630;2023-07-28T09:57:45;1.27;;;0.70;;
26654;SDS011;14278;50.784;4.630;2023-07-28T10:00:16;2.97;;;0.40;;
26654;SDS011;14278;50.784;4.630;2023-07-28T10:02:44;0.40;;;0.40;;
26654;SDS011;14278;50.784;4.630;2023-07-28T10:05:10;2.17;;;0.68;;
26654;SDS011;14278;50.784;4.630;2023-07-28T10:07:37;0.65;;;0.65;;
26654;SDS011;14278;50.784;4.630;2023-07-28T10:10:06;0.77;;;0.77;;
26654;SDS011;14278;50.784;4.630;2023-07-28T10:12:42;0.80;;;0.80;;
26654;SDS011;14278;50.784;4.630;2023-07-28T10:15:15;1.23;;;0.68;;
26654;SDS011;14278;50.784;4.630;2023-07-28T10:17:43;0.70;;;0.70;;
26654;SDS011;14278;50.784;4.630;2023-07-28T10:23:04;0.63;;;0.45;;
26654;SDS011;14278;50.784;4.630;2023-07-28T10:25:37;0.60;;;0.60;;
26654;SDS011;14278;50.784;4.630;2023-07-28T10:28:04;0.70;;;0.65;;
26654;SDS011;14278;50.784;4.630;2023-07-28T10:30:37;0.50;;;0.50;;
26654;SDS011;14278;50.784;4.630;2023-07-28T10:33:05;0.43;;;0.43;;
26654;SDS011;14278;50.784;4.630;2023-07-28T10:35:31;0.70;;;0.70;;
26654;SDS011;14278;50.784;4.630;2023-07-28T10:38:02;0.75;;;0.75;;
26654;SDS011;14278;50.784;4.630;2023-07-28T10:41:15;1.08;;;0.95;;
26654;SDS011;14278;50.784;4.630;2023-07-28T10:43:43;1.08;;;1.00;;
26654;SDS011;14278;50.784;4.630;2023-07-28T10:46:11;0.68;;;0.68;;
26654;SDS011;14278;50.784;4.630;2023-07-28T10:48:43;0.70;;;0.70;;
26654;SDS011;14278;50.784;4.630;2023-07-28T10:51:15;0.60;;;0.60;;
26654;SDS011;14278;50.784;4.630;2023-07-28T10:53:49;0.55;;;0.55;;
26654;SDS011;14278;50.784;4.630;2023-07-28T10:56:15;0.95;;;0.50;;
26654;SDS011;14278;50.784;4.630;2023-07-28T10:58:41;0.50;;;0.50;;
26654;SDS011;14278;50.784;4.630;2023-07-28T11:01:07;1.45;;;0.93;;
26654;SDS011;14278;50.784;4.630;2023-07-28T11:03:33;0.60;;;0.60;;
26654;SDS011;14278;50.784;4.630;2023-07-28T11:06:00;0.47;;;0.47;;
26654;SDS011;14278;50.784;4.630;2023-07-28T11:08:26;0.35;;;0.35;;
26654;SDS011;14278;50.784;4.630;2023-07-28T11:10:52;0.65;;;0.45;;
26654;SDS011;14278;50.784;4.630;2023-07-28T11:13:18;1.20;;;0.40;;
26654;SDS011;14278;50.784;4.630;2023-07-28T11:15:44;0.40;;;0.40;;
26654;SDS011;14278;50.784;4.630;2023-07-28T11:18:10;0.20;;;0.20;;
26654;SDS011;14278;50.784;4.630;2023-07-28T11:20:40;0.73;;;0.40;;
26654;SDS011;14278;50.784;4.630;2023-07-28T11:23:07;0.20;;;0.20;;
26654;SDS011;14278;50.784;4.630;2023-07-28T11:25:34;0.30;;;0.30;;
26654;SDS011;14278;50.784;4.630;2023-07-28T11:28:01;0.22;;;0.22;;
26654;SDS011;14278;50.784;4.630;2023-07-28T11:30:31;1.02;;;0.77;;
26654;SDS011;14278;50.784;4.630;2023-07-28T11:32:57;2.28;;;0.57;;
26654;SDS011;14278;50.784;4.630;2023-07-28T11:35:23;0.35;;;0.35;;
26654;SDS011;14278;50.784;4.630;2023-07-28T11:37:50;0.15;;;0.15;;
26654;SDS011;14278;50.784;4.630;2023-07-28T11:40:21;0.30;;;0.30;;
26654;SDS011;14278;50.784;4.630;2023-07-28T11:42:52;0.50;;;0.50;;
26654;SDS011;14278;50.784;4.630;2023-07-28T11:45:22;0.68;;;0.52;;
26654;SDS011;14278;50.784;4.630;2023-07-28T11:50:25;0.28;;;0.28;;
26654;SDS011;14278;50.784;4.630;2023-07-28T11:52:52;0.55;;;0.50;;
26654;SDS011;14278;50.784;4.630;2023-07-28T11:55:19;0.40;;;0.40;;
26654;SDS011;14278;50.784;4.630;2023-07-28T11:57:46;0.30;;;0.30;;
26654;SDS011;14278;50.784;4.630;2023-07-28T12:00:13;0.40;;;0.40;;
26654;SDS011;14278;50.784;4.630;2023-07-28T12:02:42;0.40;;;0.40;;
26654;SDS011;14278;50.784;4.630;2023-07-28T12:05:15;0.55;;;0.50;;
26654;SDS011;14278;50.784;4.630;2023-07-28T12:07:52;0.30;;;0.30;;
26654;SDS011;14278;50.784;4.630;2023-07-28T12:10:18;1.38;;;0.80;;
26654;SDS011;14278;50.784;4.630;2023-07-28T12:12:47;0.35;;;0.35;;
26654;SDS011;14278;50.784;4.630;2023-07-28T12:20:36;0.38;;;0.38;;
26654;SDS011;14278;50.784;4.630;2023-07-28T12:23:12;4.68;;;0.50;;
26654;SDS011;14278;50.784;4.630;2023-07-28T12:25:40;1.45;;;0.40;;
26654;SDS011;14278;50.784;4.630;2023-07-28T12:28:07;1.08;;;0.50;;
26654;SDS011;14278;50.784;4.630;2023-07-28T12:30:33;0.52;;;0.52;;
26654;SDS011;14278;50.784;4.630;2023-07-28T12:33:00;0.60;;;0.60;;
26654;SDS011;14278;50.784;4.630;2023-07-28T12:35:29;0.43;;;0.35;;
26654;SDS011;14278;50.784;4.630;2023-07-28T12:37:57;1.55;;;0.55;;
26654;SDS011;14278;50.784;4.630;2023-07-28T12:40:27;0.30;;;0.30;;
26654;SDS011;14278;50.784;4.630;2023-07-28T12:42:54;0.50;;;0.50;;
26654;SDS011;14278;50.784;4.630;2023-07-28T12:45:21;0.43;;;0.43;;
26654;SDS011;14278;50.784;4.630;2023-07-28T12:47:47;0.38;;;0.38;;
26654;SDS011;14278;50.784;4.630;2023-07-28T12:50:13;0.38;;;0.38;;
26654;SDS011;14278;50.784;4.630;2023-07-28T12:52:39;0.30;;;0.30;;
26654;SDS011;14278;50.784;4.630;2023-07-28T12:55:07;0.60;;;0.60;;
26654;SDS011;14278;50.784;4.630;2023-07-28T12:57:33;0.95;;;0.70;;
26654;SDS011;14278;50.784;4.630;2023-07-28T12:59:59;0.50;;;0.50;;
26654;SDS011;14278;50.784;4.630;2023-07-28T13:02:25;0.55;;;0.55;;
26654;SDS011;14278;50.784;4.630;2023-07-28T13:04:51;0.40;;;0.40;;
26654;SDS011;14278;50.784;4.630;2023-07-28T13:07:17;0.52;;;0.52;;
26654;SDS011;14278;50.784;4.630;2023-07-28T13:09:43;1.08;;;0.55;;
26654;SDS011;14278;50.784;4.630;2023-07-28T13:12:10;0.47;;;0.47;;
26654;SDS011;14278;50.784;4.630;2023-07-28T13:14:36;1.08;;;0.68;;
26654;SDS011;14278;50.784;4.630;2023-07-28T13:17:02;0.40;;;0.40;;
26654;SDS011;14278;50.784;4.630;2023-07-28T13:19:28;0.70;;;0.70;;
26654;SDS011;14278;50.784;4.630;2023-07-28T13:21:54;0.30;;;0.30;;
26654;SDS011;14278;50.784;4.630;2023-07-28T13:24:20;0.52;;;0.52;;
26654;SDS011;14278;50.784;4.630;2023-07-28T13:26:46;1.00;;;0.80;;
26654;SDS011;14278;50.784;4.630;2023-07-28T13:29:12;0.60;;;0.60;;
26654;SDS011;14278;50.784;4.630;2023-07-28T13:31:38;0.65;;;0.50;;
26654;SDS011;14278;50.784;4.630;2023-07-28T13:34:04;0.35;;;0.35;;
26654;SDS011;14278;50.784;4.630;2023-07-28T13:36:30;0.55;;;0.55;;
26654;SDS011;14278;50.784;4.630;2023-07-28T13:38:56;0.45;;;0.45;;
26654;SDS011;14278;50.784;4.630;2023-07-28T13:41:22;0.45;;;0.40;;
26654;SDS011;14278;50.784;4.630;2023-07-28T13:43:48;2.40;;;1.02;;
26654;SDS011;14278;50.784;4.630;2023-07-28T13:46:14;0.52;;;0.52;;
26654;SDS011;14278;50.784;4.630;2023-07-28T13:48:40;2.47;;;0.77;;
26654;SDS011;14278;50.784;4.630;2023-07-28T13:51:06;0.57;;;0.57;;
26654;SDS011;14278;50.784;4.630;2023-07-28T13:53:32;0.55;;;0.55;;
26654;SDS011;14278;50.784;4.630;2023-07-28T13:55:58;0.63;;;0.63;;
26654;SDS011;14278;50.784;4.630;2023-07-28T13:58:25;0.77;;;0.65;;
26654;SDS011;14278;50.784;4.630;2023-07-28T14:00:50;0.57;;;0.57;;
26654;SDS011;14278;50.784;4.630;2023-07-28T14:03:16;0.50;;;0.50;;
26654;SDS011;14278;50.784;4.630;2023-07-28T14:05:42;0.63;;;0.63;;
26654;SDS011;14278;50.784;4.630;2023-07-28T14:08:09;0.93;;;0.70;;
26654;SDS011;14278;50.784;4.630;2023-07-28T14:10:36;0.45;;;0.45;;
26654;SDS011;14278;50.784;4.630;2023-07-28T14:13:03;0.50;;;0.50;;
26654;SDS011;14278;50.784;4.630;2023-07-28T14:15:29;0.40;;;0.40;;
26654;SDS011;14278;50.784;4.630;2023-07-28T14:17:55;0.40;;;0.40;;
26654;SDS011;14278;50.784;4.630;2023-07-28T14:20:21;0.93;;;0.70;;
26654;SDS011;14278;50.784;4.630;2023-07-28T14:22:47;0.30;;;0.30;;
26654;SDS011;14278;50.784;4.630;2023-07-28T14:25:13;2.08;;;0.85;;
26654;SDS011;14278;50.784;4.630;2023-07-28T14:27:39;0.82;;;0.60;;
26654;SDS011;14278;50.784;4.630;2023-07-28T14:30:05;0.47;;;0.47;;
26654;SDS011;14278;50.784;4.630;2023-07-28T14:32:31;0.70;;;0.40;;
26654;SDS011;14278;50.784;4.630;2023-07-28T14:34:58;0.57;;;0.40;;
26654;SDS011;14278;50.784;4.630;2023-07-28T14:37:23;0.77;;;0.70;;
26654;SDS011;14278;50.784;4.630;2023-07-28T14:39:49;1.42;;;0.57;;
26654;SDS011;14278;50.784;4.630;2023-07-28T14:42:15;1.98;;;0.73;;
26654;SDS011;14278;50.784;4.630;2023-07-28T14:44:41;1.17;;;0.73;;
26654;SDS011;14278;50.784;4.630;2023-07-28T14:47:07;0.70;;;0.57;;
26654;SDS011;14278;50.784;4.630;2023-07-28T14:49:33;0.30;;;0.30;;
26654;SDS011;14278;50.784;4.630;2023-07-28T14:51:59;0.73;;;0.60;;
26654;SDS011;14278;50.784;4.630;2023-07-28T14:54:27;0.70;;;0.70;;
26654;SDS011;14278;50.784;4.630;2023-07-28T14:56:53;7.03;;;0.85;;
26654;SDS011;14278;50.784;4.630;2023-07-28T14:59:19;1.55;;;0.82;;
26654;SDS011;14278;50.784;4.630;2023-07-28T15:01:45;1.58;;;0.70;;